Startpagina
METAR-TAF:

METAR-TAF

Vliegvelden :

Luchthaven Maputo

Maputo, Mozambique

breedte: 25-55S, lengte: 032-34E, hoogte: 39 m

Actueel weer

Dit bericht is 1 uur en het 12 minuten geleden gemaakt, om 18:00 UTC
Wind 7 kt uit het oosten
Temperatuur 26°C
Vochtigheid 65%
Druk 1014 hPa
Zicht 10 km of meer
Weinig wolken op 2000 ft

METAR: FQMA 281800Z 08007KT 9999 FEW020 26/19 Q1014 NOSIG

Tijdstip: 21:12 (19:12 UTC)

Verwachting

Dit bericht is 3 uur en het 12 minuten geleden gemaakt, om 16:00 UTC
Verwachting geldig van 28 om 18 UTC tot 29 om 24 UTC
Wind 10 kt uit het noordwesten
Zicht 10 km of meer
Verspreide wolken op 2000 ft
Wijzigt naar
van 29 om 06 UTC tot 29 om 08 UTC
Wind 8 kt uit het noordoosten
Wijzigt naar
van 29 om 12 UTC tot 29 om 14 UTC
Wind 10 kt uit het oosten

TAF: FQMA 281600Z 2818/2924 32010KT 9999 SCT020 TX32/2913Z TN21/2903Z BECMG 2906/2908 04008KT BECMG 2912/2914 10010KT

Waarnemingen en weersverwachtingen van meer dan 4000 vliegvelden (METAR en TAF).

De beschikbare stations zijn de gele en rode punten op de kaart.

Ga met uw muis naar het station om de naam te zien.

Klik dan om waarnemingen en weersverwachtingen te zien.

kaart wijzigen: klik op de groene knoppen met een zwart kruis om in te zoomen, op de groene knop met een streepje om uit te zoomen of op de groene pijlen voor aangrenzende kaarten.


METAR-TAF: